Tawas City, Michigan
Current Conditions -  °F | °C
As of 5:13 AM on Sunday 25 Jan 2015 (Local Time) from KOSC Reporting Station
Light Snow Light Snow  
Wind Chill:   Ceiling: 1800
Heat Index: 14°   Visibility: 10mi
Dew Point:   Wind: 8mph
Humidity: 77%   Direction: 350°N
Pressure: 29.85"   Gusts: NA
Location:  44.27°N, 83.52°W
Report Text: KOSC 251013Z AUTO 35007KT 10SM -SN BKN018 M10/M13 A2985 RMK AO2 T10981132
Loading
Personal Weather Stations






























Interactive Weather Map New forecast layout! Learn more

10-Day Weather Forecast

Advertisements
Track Severe Weather on mobile